Timeline UpdatesTrip UpdatesNews PostsPvt PostsTravel TipsAdmin PostsConv PostsFollowed PostsChat RequestsBlog PostsPNR Posts

Disclaimer
Search
 
 
Fri Aug 1, 2014 21:28:36 ISTHomeTrainsΣChainsAtlasPNRForumGalleryNewsFAQTripsMembersLoginFeedback
No Recent News for this Train
Other Trains in the News **new
Latest...
.
Fri Jun 13, 2014 (05:32PM)
⇐ Return Journey: Train# 14626

14625/Delhi SaraiRohilla - Firozpur Cantt InterCity Express

Apr 23 2014 (7:02PM)
Change Departure Station:
Change Arrival Station:
Post a Train Travel TipPost a Train Travel Tip **new
Post a Comment/Question/Picture/VideoPost a Comment/Question/Picture/Video
Inaugural Run
Fri Aug 09, 2013
Pantry/Catering
✕ NO Pantry Car
✕ NO Catering
RSA - Rake Sharing
14009/10 Delhi Sarai Rohilla-Chindwara-Delhi Sarai Rohilla Express
Rake/Coach Composition
LOCO-SLRD-GS-GS-GS-S5-S4-S3-S2-S1-B1-A1-GS-GS-GS-SLRD; [Informed by: Biplob in Blog Entry# 825010]
Loco
TKD WDP-1
News    PNR    Forum    Time-Table    Availability    Fare Chart    Map    Arr/Dep History    Trips    Gallery    ΣChains    X/O    Timeline    
Travel Time: 8h 0m    13 halts    Distance: 382 km    Avg Speed: 47 km/hr
Type: Mail/Express
Zone: NR/Northern
Departs @ 06:45 (Avg 36m late)
Platform# ???
SMTWTFS
Delhi Sarai Rohilla/DEE 
Arrives @ 14:45 (Avg 15m late)
Platform# 1
SMTWTFS
Firozpur Cantt. Junction/FZR 

13 halts. 57 intermediate Stations between Delhi Sarai Rohilla and Firozpur Cantt. Junction

Hide intermediate Stations  

#CodeStation NameX/OArrivesAvgDepartsAvgHaltPFDay#KmSpeedElevZoneAddress
1DEE»Delhi Sarai Rohilla (5)»  -06:45+36--10.013226mNRNew Rohtak road, Delhi NCT
1.1DBSIDayabastiX  06:51-06:51-  11.4 13225mNRZakhira, Delhi NCT
2SSBShakur BastiXO  07:10+3207:12+332m--15.452216mNRPitampura, Delhi NCT
2.1MGLPMangolpuri  07:17-07:17-  19.7 52217mNROutter Ring Rd, Delhi NCT
2.2NNONangloi07:21-07:21-  112.9 52219mNRJJ Colony No 1, Delhi NCT
2.3MQCMundkaX  07:24-07:24-  115.8 52215mNRMundka, Delhi NCT
2.4GHEGhevra  07:27-07:27-  118.8 52214mNRGhevra, Delhi NCT
3BGZBahadurgarhX  07:35+4407:37+462m--125.442220mNRBahadurgarh, Haryana
3.1ASEAsaudahX  07:48-07:48-  133.5 42216mNRDelhi-Rohtak Corridor, Haryana
3.2ROHNRohed Nagar Halt  07:56-07:56-  138.7 42220mNRDelhi-Rohtak Corridor, Haryana
3.3SPZSampla  08:02-08:02-  143.3 42222mNRSampla, Haryana
3.4ISMIsmaila HaryanaX  08:07-08:07-  146.9 42221mNRNational Highway 10, Haryana
3.5KRZKharawarX  08:17-08:17-  153.7 42222mNRKharawar, Haryana
3.6ABOAsthal Bohar Junction (4)  08:25-08:25-  159.5 42223mNRRohtak, Haryana
4ROKRohtak Junction (3)X  08:34+2908:36+302m--165.770220mNRRohtak, Haryana
4.1SMFSamar Gopalpur  08:45-08:45-  176.3 70223mNRNH 71, Haryana
4.2KHVKarainthiX  08:52-08:52-  184.0 70222mNRNH 71, Haryana
4.3KZHKila Zafargarh  08:58-08:58-  191.7 70223mNRNH 71, Haryana
4.4JNAJulana  09:03-09:03-  197.1 70226mNRJulana, Haryana
4.5JJTJai Jai Wanti  09:08-09:08-  1103.1 70227mNRJind, Haryana
4.6KIUKinana  09:14-09:14-  1110.3 70225mNRBrarkhera, Haryana
4.7BSPHBishanpur HaryanaX  09:19-09:19-  1115.7 70226mNRBishanpur, Haryana
5JINDJind Junction (3)  09:25+3109:27+312m--1122.870222mNR126102., Haryana
5.1BZOBarsolaX  09:35-09:35-  1131.9 70224mNRDistrict Jind, Haryana
5.2UCAUchanaX  09:43-09:43-  1141.5 70225mNRDistrict Jind, Haryana
5.3GSOGhaso  09:50-09:50-  1149.4 70231mNRDistrict Jind, Haryana
6NRWNarwana Junction (4)X  09:56+3309:58+332m--1156.795235mNRWay to Narwana, Haryana
6.1DHYDharodi  10:03-10:03-  1164.3 95233mNRMDR 111, Haryana
6.2DTNDhamtan Sahib  10:07-10:07-  1171.5 95234mNRJind District, Haryana
6.3KLWNKalwan  10:10-10:10-  1175.7 95229mNRMDR 111, Haryana
7TUNTohana (2)  10:14+3610:16+362m--1182.143232mNRTohana, Haryana
7.1HMQHimmatpura  10:21-10:21-  1185.9 43228mNRTohana, Haryana
8JHLJakhal Junction  10:33+3410:35+352m--1194.481225mNRJakhal, Haryana
8.1KAGRKagangarh  10:42-10:42-  1203.6 81226mNRMDR 102, Punjab
8.2BRZBareta  10:46-10:46-  1208.6 81223mNRBareta, Punjab
8.3DTWDatewas  10:51-10:51-  1216.2 81225mNRBareta, Punjab
9BLZBudhlada10:57+1810:58+181m--1224.028223mNRBudhlada, Punjab
9.1NPXNarindarpuraX  11:15-11:15-  1231.7 28224mNRMansa, Punjab
10MSZMansa  11:33+1111:35+132m11240.180222mNRMansa, Punjab
10.1SSZSadda Singhwala (1)  11:40-11:40-  1246.3 80216mNRState Highway 12A, Punjab
10.2KTKLKotli Kalan  11:41-11:41-  1248.7 80219mNRState Highway 12A, Punjab
11MAURMaur  11:49+1511:51+152m--1258.848220mNRMaur Mandi, Punjab
11.1MASKMaisar Khana  12:01-12:01-  1267.2 48215mNRState Highway 12A, Punjab
11.2KTFKot Fatteh  12:10-12:10-  1274.3 48213mNRBathinda, Punjab
11.3BTIBBhatinda b Cabin  12:22-12:22-  1284.1 48208mNWRBathinda, Punjab
11.4KZWKatar Singhwala  12:24-12:24-  1285.0 48211mNRState Highway 17, Punjab
12BTIBathinda Junction (6)XO  12:35+1612:45+1610m31294.348208mNRBathinda, Punjab
12.1GNAGoneana Bhai Jagta (3)  13:00-13:00-  1306.6 48206mNRGoniana, Punjab
12.2CBXChand BhanX  13:09-13:09-  1314.0 48211mNRJaitu, Punjab
12.3GJUTGangsar Jaitu (3)  13:18-13:18-  1320.8 48207mNRJaitu, Punjab
12.4AJTMAjitgill Matta (1)  13:24-13:24-  1325.5 48209mNRKotkapura Jaitu Rd, Punjab
12.5RLSRomana Albel Singh (1)  13:28-13:28-  1328.9 48208mNRKotkapura Jaitu Rd, Punjab
13KKPKot Kapura Junction (3)  13:38+2213:40+222m11337.1700mNRKotkapura, Punjab
13.1GZSGiani Zail Singh Sandhwan  13:44-13:44-  1341.2 70210mNRDistt Faridkot, Punjab
14FDKFaridkot (3)  13:51+2913:53+302m11349.837202mNRFaridkot, Punjab
14.1PKZPipli Pakhi Kalan  14:03-14:03-  1355.8 37200mNRFaridkot, Punjab
14.2GHAGolehwalaX  14:15-14:15-  1363.1 37201mNRGolehwala, Punjab
14.3KBUKasu Begu  14:27-14:27-  1371.1 37198mNRKasu Begu, Punjab
15FZR•Firozpur Cantt. Junction (5)•  14:45+15-11382.1-200mNRFirozpur Cantt 152001, Punjab
Scroll to Top
Scroll to Bottom